sensor_id;sensor_type;location;lat;lon;timestamp;temperature;humidity
78297;DHT22;67555;47.660;19.622;2024-01-11T00:00:17;-4.20;65.60
78297;DHT22;67555;47.660;19.622;2024-01-11T00:02:44;-4.30;65.80
78297;DHT22;67555;47.660;19.622;2024-01-11T00:05:10;-4.30;65.80
78297;DHT22;67555;47.660;19.622;2024-01-11T00:07:36;-4.30;65.80
78297;DHT22;67555;47.660;19.622;2024-01-11T00:10:02;-4.40;65.80
78297;DHT22;67555;47.660;19.622;2024-01-11T00:12:29;-4.50;66.20
78297;DHT22;67555;47.660;19.622;2024-01-11T00:14:55;-4.60;66.40
78297;DHT22;67555;47.660;19.622;2024-01-11T00:17:21;-4.60;66.70
78297;DHT22;67555;47.660;19.622;2024-01-11T00:19:47;-4.60;67.10
78297;DHT22;67555;47.660;19.622;2024-01-11T00:22:14;-4.70;67.10
78297;DHT22;67555;47.660;19.622;2024-01-11T00:24:40;-4.60;67.20
78297;DHT22;67555;47.660;19.622;2024-01-11T00:27:06;-4.60;67.20
78297;DHT22;67555;47.660;19.622;2024-01-11T00:29:32;-4.50;66.70
78297;DHT22;67555;47.660;19.622;2024-01-11T00:31:58;-4.30;66.40
78297;DHT22;67555;47.660;19.622;2024-01-11T00:34:23;-4.30;66.10
78297;DHT22;67555;47.660;19.622;2024-01-11T00:36:49;-4.20;65.90
78297;DHT22;67555;47.660;19.622;2024-01-11T00:39:15;-4.30;65.80
78297;DHT22;67555;47.660;19.622;2024-01-11T00:41:41;-4.60;66.20
78297;DHT22;67555;47.660;19.622;2024-01-11T00:44:07;-4.60;66.80
78297;DHT22;67555;47.660;19.622;2024-01-11T00:46:34;-4.70;67.00
78297;DHT22;67555;47.660;19.622;2024-01-11T00:49:00;-4.70;67.20
78297;DHT22;67555;47.660;19.622;2024-01-11T00:51:26;-4.70;67.20
78297;DHT22;67555;47.660;19.622;2024-01-11T00:53:52;-4.70;67.20
78297;DHT22;67555;47.660;19.622;2024-01-11T00:56:18;-4.60;67.10
78297;DHT22;67555;47.660;19.622;2024-01-11T00:58:45;-4.60;66.80
78297;DHT22;67555;47.660;19.622;2024-01-11T01:01:11;-4.60;66.70
78297;DHT22;67555;47.660;19.622;2024-01-11T01:03:39;-4.70;66.60
78297;DHT22;67555;47.660;19.622;2024-01-11T01:06:05;-4.80;66.90
78297;DHT22;67555;47.660;19.622;2024-01-11T01:08:32;-4.90;67.10
78297;DHT22;67555;47.660;19.622;2024-01-11T01:11:01;-4.90;67.30
78297;DHT22;67555;47.660;19.622;2024-01-11T01:13:27;-4.80;67.10
78297;DHT22;67555;47.660;19.622;2024-01-11T01:15:53;-4.80;67.20
78297;DHT22;67555;47.660;19.622;2024-01-11T01:18:19;-4.70;67.20
78297;DHT22;67555;47.660;19.622;2024-01-11T01:20:44;-4.70;67.20
78297;DHT22;67555;47.660;19.622;2024-01-11T01:23:10;-4.60;67.00
78297;DHT22;67555;47.660;19.622;2024-01-11T01:25:36;-4.60;67.00
78297;DHT22;67555;47.660;19.622;2024-01-11T01:28:02;-4.80;67.20
78297;DHT22;67555;47.660;19.622;2024-01-11T01:30:27;-5.00;67.50
78297;DHT22;67555;47.660;19.622;2024-01-11T01:32:53;-4.90;67.70
78297;DHT22;67555;47.660;19.622;2024-01-11T01:35:19;-4.90;67.90
78297;DHT22;67555;47.660;19.622;2024-01-11T01:37:45;-4.80;67.60
78297;DHT22;67555;47.660;19.622;2024-01-11T01:40:12;-4.80;67.40
78297;DHT22;67555;47.660;19.622;2024-01-11T01:42:44;-4.80;67.40
78297;DHT22;67555;47.660;19.622;2024-01-11T01:45:11;-4.70;67.30
78297;DHT22;67555;47.660;19.622;2024-01-11T01:47:39;-4.60;67.00
78297;DHT22;67555;47.660;19.622;2024-01-11T01:50:06;-4.60;66.80
78297;DHT22;67555;47.660;19.622;2024-01-11T01:52:33;-4.60;66.60
78297;DHT22;67555;47.660;19.622;2024-01-11T01:55:02;-4.60;66.50
78297;DHT22;67555;47.660;19.622;2024-01-11T01:57:29;-4.60;66.50
78297;DHT22;67555;47.660;19.622;2024-01-11T01:59:56;-4.60;66.50
78297;DHT22;67555;47.660;19.622;2024-01-11T02:02:22;-4.70;66.60
78297;DHT22;67555;47.660;19.622;2024-01-11T02:04:48;-4.80;66.70
78297;DHT22;67555;47.660;19.622;2024-01-11T02:07:14;-4.80;66.60
78297;DHT22;67555;47.660;19.622;2024-01-11T02:09:41;-4.80;66.70
78297;DHT22;67555;47.660;19.622;2024-01-11T02:12:08;-4.80;66.80
78297;DHT22;67555;47.660;19.622;2024-01-11T02:14:37;-4.60;66.70
78297;DHT22;67555;47.660;19.622;2024-01-11T02:17:03;-4.60;66.30
78297;DHT22;67555;47.660;19.622;2024-01-11T02:19:29;-4.60;66.30
78297;DHT22;67555;47.660;19.622;2024-01-11T02:21:54;-4.60;66.30
78297;DHT22;67555;47.660;19.622;2024-01-11T02:24:22;-4.70;66.40
78297;DHT22;67555;47.660;19.622;2024-01-11T02:27:02;-4.90;66.60
78297;DHT22;67555;47.660;19.622;2024-01-11T02:29:29;-4.90;67.00
78297;DHT22;67555;47.660;19.622;2024-01-11T02:31:55;-5.10;67.40
78297;DHT22;67555;47.660;19.622;2024-01-11T02:34:26;-5.10;67.70
78297;DHT22;67555;47.660;19.622;2024-01-11T02:36:53;-5.10;67.90
78297;DHT22;67555;47.660;19.622;2024-01-11T02:39:19;-5.10;68.00
78297;DHT22;67555;47.660;19.622;2024-01-11T02:41:45;-4.90;67.70
78297;DHT22;67555;47.660;19.622;2024-01-11T02:44:11;-4.80;67.30
78297;DHT22;67555;47.660;19.622;2024-01-11T02:46:37;-4.90;67.20
78297;DHT22;67555;47.660;19.622;2024-01-11T02:49:03;-4.90;67.20
78297;DHT22;67555;47.660;19.622;2024-01-11T02:51:29;-4.90;67.50
78297;DHT22;67555;47.660;19.622;2024-01-11T02:53:55;-5.00;67.50
78297;DHT22;67555;47.660;19.622;2024-01-11T02:56:20;-5.10;67.80
78297;DHT22;67555;47.660;19.622;2024-01-11T02:58:46;-5.10;68.00
78297;DHT22;67555;47.660;19.622;2024-01-11T03:01:12;-5.20;68.10
78297;DHT22;67555;47.660;19.622;2024-01-11T03:03:39;-5.20;68.20
78297;DHT22;67555;47.660;19.622;2024-01-11T03:06:05;-5.10;68.10
78297;DHT22;67555;47.660;19.622;2024-01-11T03:08:31;-5.10;67.70
78297;DHT22;67555;47.660;19.622;2024-01-11T03:10:57;-5.20;67.70
78297;DHT22;67555;47.660;19.622;2024-01-11T03:13:24;-5.20;67.80
78297;DHT22;67555;47.660;19.622;2024-01-11T03:15:49;-5.40;68.30
78297;DHT22;67555;47.660;19.622;2024-01-11T03:18:15;-5.50;68.60
78297;DHT22;67555;47.660;19.622;2024-01-11T03:20:41;-5.50;68.80
78297;DHT22;67555;47.660;19.622;2024-01-11T03:23:28;-5.50;68.90
78297;DHT22;67555;47.660;19.622;2024-01-11T03:25:55;-5.50;69.00
78297;DHT22;67555;47.660;19.622;2024-01-11T03:28:30;-5.40;68.80
78297;DHT22;67555;47.660;19.622;2024-01-11T03:30:57;-5.30;68.40
78297;DHT22;67555;47.660;19.622;2024-01-11T03:33:23;-5.20;68.00
78297;DHT22;67555;47.660;19.622;2024-01-11T03:35:48;-5.30;67.60
78297;DHT22;67555;47.660;19.622;2024-01-11T03:38:15;-5.40;67.60
78297;DHT22;67555;47.660;19.622;2024-01-11T03:40:40;-5.40;67.60
78297;DHT22;67555;47.660;19.622;2024-01-11T03:43:31;-5.60;68.00
78297;DHT22;67555;47.660;19.622;2024-01-11T03:45:57;-5.70;68.30
78297;DHT22;67555;47.660;19.622;2024-01-11T03:48:32;-5.90;68.60
78297;DHT22;67555;47.660;19.622;2024-01-11T03:51:01;-6.00;69.10
78297;DHT22;67555;47.660;19.622;2024-01-11T03:53:27;-6.10;69.40
78297;DHT22;67555;47.660;19.622;2024-01-11T03:55:53;-6.20;69.60
78297;DHT22;67555;47.660;19.622;2024-01-11T03:58:19;-6.20;69.70
78297;DHT22;67555;47.660;19.622;2024-01-11T04:00:45;-6.10;69.70
78297;DHT22;67555;47.660;19.622;2024-01-11T04:03:12;-6.10;69.40
78297;DHT22;67555;47.660;19.622;2024-01-11T04:05:37;-6.00;69.20
78297;DHT22;67555;47.660;19.622;2024-01-11T04:08:05;-6.00;69.20
78297;DHT22;67555;47.660;19.622;2024-01-11T04:10:35;-6.00;69.10
78297;DHT22;67555;47.660;19.622;2024-01-11T04:13:02;-5.90;68.80
78297;DHT22;67555;47.660;19.622;2024-01-11T04:15:28;-6.00;69.10
78297;DHT22;67555;47.660;19.622;2024-01-11T04:17:54;-6.20;69.50
78297;DHT22;67555;47.660;19.622;2024-01-11T04:20:19;-6.30;70.10
78297;DHT22;67555;47.660;19.622;2024-01-11T04:22:45;-6.30;70.30
78297;DHT22;67555;47.660;19.622;2024-01-11T04:25:11;-6.30;70.40
78297;DHT22;67555;47.660;19.622;2024-01-11T04:27:36;-6.30;70.50
78297;DHT22;67555;47.660;19.622;2024-01-11T04:30:02;-6.30;70.60
78297;DHT22;67555;47.660;19.622;2024-01-11T04:32:28;-6.30;70.60
78297;DHT22;67555;47.660;19.622;2024-01-11T04:34:54;-6.20;70.40
78297;DHT22;67555;47.660;19.622;2024-01-11T04:37:19;-6.10;70.20
78297;DHT22;67555;47.660;19.622;2024-01-11T04:39:45;-6.00;69.90
78297;DHT22;67555;47.660;19.622;2024-01-11T04:42:11;-5.80;69.60
78297;DHT22;67555;47.660;19.622;2024-01-11T04:44:36;-5.70;69.20
78297;DHT22;67555;47.660;19.622;2024-01-11T04:47:02;-5.60;68.80
78297;DHT22;67555;47.660;19.622;2024-01-11T04:49:28;-5.60;68.50
78297;DHT22;67555;47.660;19.622;2024-01-11T04:51:55;-5.60;68.60
78297;DHT22;67555;47.660;19.622;2024-01-11T04:54:21;-5.60;68.70
78297;DHT22;67555;47.660;19.622;2024-01-11T04:56:48;-5.60;68.90
78297;DHT22;67555;47.660;19.622;2024-01-11T04:59:13;-5.70;68.90
78297;DHT22;67555;47.660;19.622;2024-01-11T05:01:39;-5.60;68.70
78297;DHT22;67555;47.660;19.622;2024-01-11T05:04:06;-5.70;68.70
78297;DHT22;67555;47.660;19.622;2024-01-11T05:06:32;-5.70;69.00
78297;DHT22;67555;47.660;19.622;2024-01-11T05:08:58;-5.70;69.00
78297;DHT22;67555;47.660;19.622;2024-01-11T05:11:24;-5.60;68.90
78297;DHT22;67555;47.660;19.622;2024-01-11T05:13:50;-5.60;68.70
78297;DHT22;67555;47.660;19.622;2024-01-11T05:16:24;-5.50;68.60
78297;DHT22;67555;47.660;19.622;2024-01-11T05:18:51;-5.60;68.60
78297;DHT22;67555;47.660;19.622;2024-01-11T05:21:18;-5.60;68.80
78297;DHT22;67555;47.660;19.622;2024-01-11T05:23:44;-5.60;69.10
78297;DHT22;67555;47.660;19.622;2024-01-11T05:26:10;-5.60;69.00
78297;DHT22;67555;47.660;19.622;2024-01-11T05:28:36;-5.60;69.10
78297;DHT22;67555;47.660;19.622;2024-01-11T05:31:09;-5.60;69.30
78297;DHT22;67555;47.660;19.622;2024-01-11T05:33:35;-5.70;69.70
78297;DHT22;67555;47.660;19.622;2024-01-11T05:36:03;-5.60;69.60
78297;DHT22;67555;47.660;19.622;2024-01-11T05:38:29;-5.50;69.10
78297;DHT22;67555;47.660;19.622;2024-01-11T05:40:55;-5.40;68.80
78297;DHT22;67555;47.660;19.622;2024-01-11T05:43:22;-5.50;69.00
78297;DHT22;67555;47.660;19.622;2024-01-11T05:45:48;-5.40;69.20
78297;DHT22;67555;47.660;19.622;2024-01-11T05:48:15;-5.40;68.90
78297;DHT22;67555;47.660;19.622;2024-01-11T05:50:42;-5.20;68.60
78297;DHT22;67555;47.660;19.622;2024-01-11T05:53:07;-5.20;68.40
78297;DHT22;67555;47.660;19.622;2024-01-11T05:55:33;-5.10;68.00
78297;DHT22;67555;47.660;19.622;2024-01-11T05:58:00;-5.10;67.80
78297;DHT22;67555;47.660;19.622;2024-01-11T06:00:25;-5.10;67.60
78297;DHT22;67555;47.660;19.622;2024-01-11T06:02:52;-5.10;67.70
78297;DHT22;67555;47.660;19.622;2024-01-11T06:05:17;-5.20;67.80
78297;DHT22;67555;47.660;19.622;2024-01-11T06:07:43;-5.20;68.20
78297;DHT22;67555;47.660;19.622;2024-01-11T06:10:09;-5.20;68.40
78297;DHT22;67555;47.660;19.622;2024-01-11T06:12:35;-5.20;68.30
78297;DHT22;67555;47.660;19.622;2024-01-11T06:15:01;-5.20;68.30
78297;DHT22;67555;47.660;19.622;2024-01-11T06:17:27;-5.20;68.40
78297;DHT22;67555;47.660;19.622;2024-01-11T06:19:53;-5.30;68.60
78297;DHT22;67555;47.660;19.622;2024-01-11T06:22:19;-5.30;68.80
78297;DHT22;67555;47.660;19.622;2024-01-11T06:24:45;-5.20;68.80
78297;DHT22;67555;47.660;19.622;2024-01-11T06:27:10;-5.10;68.40
78297;DHT22;67555;47.660;19.622;2024-01-11T06:29:36;-5.00;68.20
78297;DHT22;67555;47.660;19.622;2024-01-11T06:32:02;-4.90;68.00
78297;DHT22;67555;47.660;19.622;2024-01-11T06:34:28;-4.90;68.00
78297;DHT22;67555;47.660;19.622;2024-01-11T06:36:54;-4.80;68.00
78297;DHT22;67555;47.660;19.622;2024-01-11T06:39:20;-4.90;68.00
78297;DHT22;67555;47.660;19.622;2024-01-11T06:41:46;-4.80;68.00
78297;DHT22;67555;47.660;19.622;2024-01-11T06:44:12;-4.80;68.00
78297;DHT22;67555;47.660;19.622;2024-01-11T06:46:38;-4.70;67.90
78297;DHT22;67555;47.660;19.622;2024-01-11T06:49:07;-4.80;68.00
78297;DHT22;67555;47.660;19.622;2024-01-11T06:51:34;-4.90;68.40
78297;DHT22;67555;47.660;19.622;2024-01-11T06:54:00;-5.00;68.60
78297;DHT22;67555;47.660;19.622;2024-01-11T06:56:27;-5.00;68.80
78297;DHT22;67555;47.660;19.622;2024-01-11T06:58:54;-5.00;69.00
78297;DHT22;67555;47.660;19.622;2024-01-11T07:01:19;-5.00;69.00
78297;DHT22;67555;47.660;19.622;2024-01-11T07:03:45;-5.00;69.10
78297;DHT22;67555;47.660;19.622;2024-01-11T07:06:11;-4.90;69.10
78297;DHT22;67555;47.660;19.622;2024-01-11T07:08:37;-4.90;69.00
78297;DHT22;67555;47.660;19.622;2024-01-11T07:11:03;-4.80;69.10
78297;DHT22;67555;47.660;19.622;2024-01-11T07:13:30;-4.80;69.00
78297;DHT22;67555;47.660;19.622;2024-01-11T07:15:57;-4.60;69.00
78297;DHT22;67555;47.660;19.622;2024-01-11T07:18:24;-4.60;68.70
78297;DHT22;67555;47.660;19.622;2024-01-11T07:20:52;-4.50;68.60
78297;DHT22;67555;47.660;19.622;2024-01-11T07:23:18;-4.40;68.40
78297;DHT22;67555;47.660;19.622;2024-01-11T07:25:43;-4.40;68.30
78297;DHT22;67555;47.660;19.622;2024-01-11T07:28:09;-4.40;68.40
78297;DHT22;67555;47.660;19.622;2024-01-11T07:30:35;-4.30;68.50
78297;DHT22;67555;47.660;19.622;2024-01-11T07:33:01;-4.10;68.20
78297;DHT22;67555;47.660;19.622;2024-01-11T07:35:27;-4.00;67.80
78297;DHT22;67555;47.660;19.622;2024-01-11T07:37:53;-3.90;67.70
78297;DHT22;67555;47.660;19.622;2024-01-11T07:40:19;-3.70;67.50
78297;DHT22;67555;47.660;19.622;2024-01-11T07:42:45;-3.60;67.30
78297;DHT22;67555;47.660;19.622;2024-01-11T07:45:11;-3.50;67.00
78297;DHT22;67555;47.660;19.622;2024-01-11T07:47:37;-3.40;66.90
78297;DHT22;67555;47.660;19.622;2024-01-11T07:50:04;-3.20;66.80
78297;DHT22;67555;47.660;19.622;2024-01-11T07:52:32;-3.10;66.60
78297;DHT22;67555;47.660;19.622;2024-01-11T07:54:58;-3.00;66.50
78297;DHT22;67555;47.660;19.622;2024-01-11T07:57:32;-2.90;66.40
78297;DHT22;67555;47.660;19.622;2024-01-11T07:59:58;-2.90;66.40
78297;DHT22;67555;47.660;19.622;2024-01-11T08:02:25;-2.80;66.50
78297;DHT22;67555;47.660;19.622;2024-01-11T08:04:50;-2.70;66.50
78297;DHT22;67555;47.660;19.622;2024-01-11T08:07:16;-2.60;66.50
78297;DHT22;67555;47.660;19.622;2024-01-11T08:09:42;-2.50;66.50
78297;DHT22;67555;47.660;19.622;2024-01-11T08:12:11;-2.40;66.50
78297;DHT22;67555;47.660;19.622;2024-01-11T08:14:37;-2.30;66.60
78297;DHT22;67555;47.660;19.622;2024-01-11T08:17:03;-2.30;66.80
78297;DHT22;67555;47.660;19.622;2024-01-11T08:19:31;-2.10;66.80
78297;DHT22;67555;47.660;19.622;2024-01-11T08:21:58;-2.10;66.80
78297;DHT22;67555;47.660;19.622;2024-01-11T08:24:23;-1.90;66.90
78297;DHT22;67555;47.660;19.622;2024-01-11T08:26:51;-1.70;66.80
78297;DHT22;67555;47.660;19.622;2024-01-11T08:29:18;-1.60;66.80
78297;DHT22;67555;47.660;19.622;2024-01-11T08:31:48;-1.50;66.70
78297;DHT22;67555;47.660;19.622;2024-01-11T08:34:13;-1.30;66.70
78297;DHT22;67555;47.660;19.622;2024-01-11T08:36:39;-1.20;66.60
78297;DHT22;67555;47.660;19.622;2024-01-11T08:39:05;-1.10;66.50
78297;DHT22;67555;47.660;19.622;2024-01-11T08:41:32;-1.00;66.50
78297;DHT22;67555;47.660;19.622;2024-01-11T08:43:59;-0.90;66.40
78297;DHT22;67555;47.660;19.622;2024-01-11T08:46:28;-0.80;66.20
78297;DHT22;67555;47.660;19.622;2024-01-11T08:48:56;-0.70;66.30
78297;DHT22;67555;47.660;19.622;2024-01-11T08:51:22;-0.60;66.40
78297;DHT22;67555;47.660;19.622;2024-01-11T08:53:48;-0.50;66.30
78297;DHT22;67555;47.660;19.622;2024-01-11T08:56:14;-0.40;66.30
78297;DHT22;67555;47.660;19.622;2024-01-11T08:58:42;-0.20;66.20
78297;DHT22;67555;47.660;19.622;2024-01-11T09:01:08;-0.10;66.20
78297;DHT22;67555;47.660;19.622;2024-01-11T09:03:34;-0.10;66.30
78297;DHT22;67555;47.660;19.622;2024-01-11T09:06:01;0.00;66.40
78297;DHT22;67555;47.660;19.622;2024-01-11T09:08:27;0.00;66.60
78297;DHT22;67555;47.660;19.622;2024-01-11T09:10:53;0.00;66.50
78297;DHT22;67555;47.660;19.622;2024-01-11T09:13:20;0.10;66.50
78297;DHT22;67555;47.660;19.622;2024-01-11T09:15:46;0.20;66.20
78297;DHT22;67555;47.660;19.622;2024-01-11T09:18:12;0.30;66.10
78297;DHT22;67555;47.660;19.622;2024-01-11T09:20:38;0.40;66.00
78297;DHT22;67555;47.660;19.622;2024-01-11T09:23:03;0.50;65.90
78297;DHT22;67555;47.660;19.622;2024-01-11T09:25:30;0.60;65.70
78297;DHT22;67555;47.660;19.622;2024-01-11T09:27:56;0.60;65.60
78297;DHT22;67555;47.660;19.622;2024-01-11T09:30:21;0.60;65.30
78297;DHT22;67555;47.660;19.622;2024-01-11T09:32:47;0.70;64.90
78297;DHT22;67555;47.660;19.622;2024-01-11T09:35:13;0.70;64.30
78297;DHT22;67555;47.660;19.622;2024-01-11T09:37:39;0.60;63.90
78297;DHT22;67555;47.660;19.622;2024-01-11T09:40:06;0.60;64.30
78297;DHT22;67555;47.660;19.622;2024-01-11T09:42:36;0.60;64.30
78297;DHT22;67555;47.660;19.622;2024-01-11T09:45:05;0.80;64.00
78297;DHT22;67555;47.660;19.622;2024-01-11T09:47:34;0.80;63.70
78297;DHT22;67555;47.660;19.622;2024-01-11T09:50:02;0.90;63.50
78297;DHT22;67555;47.660;19.622;2024-01-11T09:52:28;1.00;63.40
78297;DHT22;67555;47.660;19.622;2024-01-11T09:55:00;1.00;63.00
78297;DHT22;67555;47.660;19.622;2024-01-11T09:57:30;1.00;62.70
78297;DHT22;67555;47.660;19.622;2024-01-11T09:59:57;1.10;62.80
78297;DHT22;67555;47.660;19.622;2024-01-11T10:02:24;1.10;62.80
78297;DHT22;67555;47.660;19.622;2024-01-11T10:04:52;1.20;62.80
78297;DHT22;67555;47.660;19.622;2024-01-11T10:07:23;1.20;62.70
78297;DHT22;67555;47.660;19.622;2024-01-11T10:09:50;1.30;62.70
78297;DHT22;67555;47.660;19.622;2024-01-11T10:12:20;1.20;62.80
78297;DHT22;67555;47.660;19.622;2024-01-11T10:14:48;1.10;63.00
78297;DHT22;67555;47.660;19.622;2024-01-11T10:17:15;1.00;63.00
78297;DHT22;67555;47.660;19.622;2024-01-11T10:19:41;1.00;63.50
78297;DHT22;67555;47.660;19.622;2024-01-11T10:22:08;1.20;63.30
78297;DHT22;67555;47.660;19.622;2024-01-11T10:24:38;1.20;62.50
78297;DHT22;67555;47.660;19.622;2024-01-11T10:27:04;1.30;62.50
78297;DHT22;67555;47.660;19.622;2024-01-11T10:29:32;1.40;62.20
78297;DHT22;67555;47.660;19.622;2024-01-11T10:31:58;1.40;61.90
78297;DHT22;67555;47.660;19.622;2024-01-11T10:34:24;1.40;61.30
78297;DHT22;67555;47.660;19.622;2024-01-11T10:36:50;1.40;61.40
78297;DHT22;67555;47.660;19.622;2024-01-11T10:39:16;1.50;61.50
78297;DHT22;67555;47.660;19.622;2024-01-11T10:41:47;1.70;61.30
78297;DHT22;67555;47.660;19.622;2024-01-11T10:44:19;1.80;60.70
78297;DHT22;67555;47.660;19.622;2024-01-11T10:46:53;1.70;59.80
78297;DHT22;67555;47.660;19.622;2024-01-11T10:49:23;1.60;60.00
78297;DHT22;67555;47.660;19.622;2024-01-11T10:51:59;1.50;59.50
78297;DHT22;67555;47.660;19.622;2024-01-11T10:54:27;1.50;59.40
78297;DHT22;67555;47.660;19.622;2024-01-11T10:56:53;1.50;59.50
78297;DHT22;67555;47.660;19.622;2024-01-11T10:59:21;1.50;58.90
78297;DHT22;67555;47.660;19.622;2024-01-11T11:01:56;1.50;59.10
78297;DHT22;67555;47.660;19.622;2024-01-11T11:04:23;1.50;57.90
78297;DHT22;67555;47.660;19.622;2024-01-11T11:06:51;1.60;57.50
78297;DHT22;67555;47.660;19.622;2024-01-11T11:09:20;1.70;57.40
78297;DHT22;67555;47.660;19.622;2024-01-11T11:11:48;1.80;56.70
78297;DHT22;67555;47.660;19.622;2024-01-11T11:14:15;1.80;56.20
78297;DHT22;67555;47.660;19.622;2024-01-11T11:16:41;2.00;55.90
78297;DHT22;67555;47.660;19.622;2024-01-11T11:19:08;2.00;56.00
78297;DHT22;67555;47.660;19.622;2024-01-11T11:21:42;2.00;54.70
78297;DHT22;67555;47.660;19.622;2024-01-11T11:24:09;2.00;54.70
78297;DHT22;67555;47.660;19.622;2024-01-11T11:26:36;2.10;54.40
78297;DHT22;67555;47.660;19.622;2024-01-11T11:29:05;2.10;54.10
78297;DHT22;67555;47.660;19.622;2024-01-11T11:31:38;2.10;53.50
78297;DHT22;67555;47.660;19.622;2024-01-11T11:34:05;2.10;52.00
78297;DHT22;67555;47.660;19.622;2024-01-11T11:36:33;2.10;52.20
78297;DHT22;67555;47.660;19.622;2024-01-11T11:39:00;2.10;52.20
78297;DHT22;67555;47.660;19.622;2024-01-11T11:41:33;2.20;52.50
78297;DHT22;67555;47.660;19.622;2024-01-11T11:44:02;2.30;52.70
78297;DHT22;67555;47.660;19.622;2024-01-11T11:46:29;2.50;52.90
78297;DHT22;67555;47.660;19.622;2024-01-11T11:48:56;2.70;52.30
78297;DHT22;67555;47.660;19.622;2024-01-11T11:51:23;2.70;50.40
78297;DHT22;67555;47.660;19.622;2024-01-11T11:53:50;2.60;49.20
78297;DHT22;67555;47.660;19.622;2024-01-11T11:56:18;2.50;49.80
78297;DHT22;67555;47.660;19.622;2024-01-11T11:58:45;2.50;49.80
78297;DHT22;67555;47.660;19.622;2024-01-11T12:01:13;2.60;50.30
78297;DHT22;67555;47.660;19.622;2024-01-11T12:03:43;2.70;50.40
78297;DHT22;67555;47.660;19.622;2024-01-11T12:06:20;2.80;50.50
78297;DHT22;67555;47.660;19.622;2024-01-11T12:08:48;2.90;50.30
78297;DHT22;67555;47.660;19.622;2024-01-11T12:11:21;3.00;50.20
78297;DHT22;67555;47.660;19.622;2024-01-11T12:13:48;3.10;49.80
78297;DHT22;67555;47.660;19.622;2024-01-11T12:16:14;3.10;50.10
78297;DHT22;67555;47.660;19.622;2024-01-11T12:18:40;3.20;48.60
78297;DHT22;67555;47.660;19.622;2024-01-11T12:21:10;3.10;48.00
78297;DHT22;67555;47.660;19.622;2024-01-11T12:23:38;3.10;47.70
78297;DHT22;67555;47.660;19.622;2024-01-11T12:26:06;3.10;47.10
78297;DHT22;67555;47.660;19.622;2024-01-11T12:28:37;3.10;47.60
78297;DHT22;67555;47.660;19.622;2024-01-11T12:31:03;3.10;48.60
78297;DHT22;67555;47.660;19.622;2024-01-11T12:33:29;3.30;48.80
78297;DHT22;67555;47.660;19.622;2024-01-11T12:35:55;3.60;48.90
78297;DHT22;67555;47.660;19.622;2024-01-11T12:38:21;4.00;48.20
78297;DHT22;67555;47.660;19.622;2024-01-11T12:40:49;4.20;47.80
78297;DHT22;67555;47.660;19.622;2024-01-11T12:43:15;4.40;47.10
78297;DHT22;67555;47.660;19.622;2024-01-11T12:45:41;4.40;47.10
78297;DHT22;67555;47.660;19.622;2024-01-11T12:48:07;4.50;47.20
78297;DHT22;67555;47.660;19.622;2024-01-11T12:50:35;4.40;47.10
78297;DHT22;67555;47.660;19.622;2024-01-11T12:53:12;4.40;47.50
78297;DHT22;67555;47.660;19.622;2024-01-11T12:55:45;4.40;47.70
78297;DHT22;67555;47.660;19.622;2024-01-11T12:58:11;4.30;47.80
78297;DHT22;67555;47.660;19.622;2024-01-11T13:00:37;4.30;48.20
78297;DHT22;67555;47.660;19.622;2024-01-11T13:03:05;4.20;48.60
78297;DHT22;67555;47.660;19.622;2024-01-11T13:05:32;4.20;48.80
78297;DHT22;67555;47.660;19.622;2024-01-11T13:08:09;4.10;48.70
78297;DHT22;67555;47.660;19.622;2024-01-11T13:10:36;4.00;48.50
78297;DHT22;67555;47.660;19.622;2024-01-11T13:13:03;3.70;48.90
78297;DHT22;67555;47.660;19.622;2024-01-11T13:15:29;3.50;49.40
78297;DHT22;67555;47.660;19.622;2024-01-11T13:17:55;3.50;49.80
78297;DHT22;67555;47.660;19.622;2024-01-11T13:20:22;3.50;50.00
78297;DHT22;67555;47.660;19.622;2024-01-11T13:22:49;3.60;50.10
78297;DHT22;67555;47.660;19.622;2024-01-11T13:25:16;3.60;50.10
78297;DHT22;67555;47.660;19.622;2024-01-11T13:27:42;3.60;49.70
78297;DHT22;67555;47.660;19.622;2024-01-11T13:30:08;3.50;49.60
78297;DHT22;67555;47.660;19.622;2024-01-11T13:32:35;3.50;49.60
78297;DHT22;67555;47.660;19.622;2024-01-11T13:35:01;3.30;49.80
78297;DHT22;67555;47.660;19.622;2024-01-11T13:37:26;3.30;50.00
78297;DHT22;67555;47.660;19.622;2024-01-11T13:39:53;3.30;50.10
78297;DHT22;67555;47.660;19.622;2024-01-11T13:42:19;3.20;50.00
78297;DHT22;67555;47.660;19.622;2024-01-11T13:44:45;3.00;49.30
78297;DHT22;67555;47.660;19.622;2024-01-11T13:47:11;2.60;49.40
78297;DHT22;67555;47.660;19.622;2024-01-11T13:49:37;2.30;49.90
78297;DHT22;67555;47.660;19.622;2024-01-11T13:52:03;2.10;50.50
78297;DHT22;67555;47.660;19.622;2024-01-11T13:54:30;2.10;50.40
78297;DHT22;67555;47.660;19.622;2024-01-11T13:56:55;2.10;50.80
78297;DHT22;67555;47.660;19.622;2024-01-11T13:59:21;2.10;50.80
78297;DHT22;67555;47.660;19.622;2024-01-11T14:01:47;2.10;50.70
78297;DHT22;67555;47.660;19.622;2024-01-11T14:04:12;2.10;51.10
78297;DHT22;67555;47.660;19.622;2024-01-11T14:06:39;2.10;50.80
78297;DHT22;67555;47.660;19.622;2024-01-11T14:09:05;2.00;50.80
78297;DHT22;67555;47.660;19.622;2024-01-11T14:11:35;1.90;51.20
78297;DHT22;67555;47.660;19.622;2024-01-11T14:14:01;1.90;51.60
78297;DHT22;67555;47.660;19.622;2024-01-11T14:16:26;1.90;51.50
78297;DHT22;67555;47.660;19.622;2024-01-11T14:18:53;1.90;51.50
78297;DHT22;67555;47.660;19.622;2024-01-11T14:21:19;2.00;51.70
78297;DHT22;67555;47.660;19.622;2024-01-11T14:23:45;2.10;51.50
78297;DHT22;67555;47.660;19.622;2024-01-11T14:26:11;2.20;51.20
78297;DHT22;67555;47.660;19.622;2024-01-11T14:28:36;2.20;50.90
78297;DHT22;67555;47.660;19.622;2024-01-11T14:31:07;2.10;50.40
78297;DHT22;67555;47.660;19.622;2024-01-11T14:33:34;2.00;50.40
78297;DHT22;67555;47.660;19.622;2024-01-11T14:36:01;1.90;50.20
78297;DHT22;67555;47.660;19.622;2024-01-11T14:38:27;1.70;50.30
78297;DHT22;67555;47.660;19.622;2024-01-11T14:40:53;1.60;50.60
78297;DHT22;67555;47.660;19.622;2024-01-11T14:43:25;1.50;50.50
78297;DHT22;67555;47.660;19.622;2024-01-11T14:45:51;1.40;50.70
78297;DHT22;67555;47.660;19.622;2024-01-11T14:48:16;1.40;50.90
78297;DHT22;67555;47.660;19.622;2024-01-11T14:50:42;1.40;51.10
78297;DHT22;67555;47.660;19.622;2024-01-11T14:53:08;1.30;51.50
78297;DHT22;67555;47.660;19.622;2024-01-11T14:55:35;1.40;51.70
78297;DHT22;67555;47.660;19.622;2024-01-11T14:58:01;1.40;52.20
78297;DHT22;67555;47.660;19.622;2024-01-11T15:00:27;1.30;52.10
78297;DHT22;67555;47.660;19.622;2024-01-11T15:02:52;1.20;52.20
78297;DHT22;67555;47.660;19.622;2024-01-11T15:05:18;1.20;52.50
78297;DHT22;67555;47.660;19.622;2024-01-11T15:07:44;1.20;52.70
78297;DHT22;67555;47.660;19.622;2024-01-11T15:10:10;1.20;52.50
78297;DHT22;67555;47.660;19.622;2024-01-11T15:12:36;1.20;52.70
78297;DHT22;67555;47.660;19.622;2024-01-11T15:15:02;1.20;52.70
78297;DHT22;67555;47.660;19.622;2024-01-11T15:17:31;1.10;52.60
78297;DHT22;67555;47.660;19.622;2024-01-11T15:19:57;1.10;52.80